createdAt,value
2018-05-14T00:00:43.765Z,81.00
2018-05-14T00:03:11.267Z,81.10
2018-05-14T00:05:38.735Z,81.10
2018-05-14T00:08:06.234Z,81.10
2018-05-14T00:10:34.111Z,81.10
2018-05-14T00:13:01.670Z,81.00
2018-05-14T00:15:30.366Z,81.20
2018-05-14T00:17:58.305Z,81.00
2018-05-14T00:20:25.913Z,81.00
2018-05-14T00:22:53.482Z,81.00
2018-05-14T00:25:20.992Z,81.10
2018-05-14T00:27:48.469Z,81.20
2018-05-14T00:30:16.066Z,81.10
2018-05-14T00:32:43.619Z,81.40
2018-05-14T00:35:11.603Z,81.70
2018-05-14T00:37:39.507Z,81.80
2018-05-14T00:40:07.047Z,81.80
2018-05-14T00:42:34.571Z,82.00
2018-05-14T00:45:02.159Z,81.90
2018-05-14T00:47:30.129Z,81.80
2018-05-14T00:49:58.029Z,81.80
2018-05-14T00:52:25.598Z,81.80
2018-05-14T00:55:06.116Z,81.70
2018-05-14T00:57:34.164Z,81.60
2018-05-14T01:00:01.651Z,81.60
2018-05-14T01:02:29.174Z,81.70
2018-05-14T01:04:56.915Z,81.60
2018-05-14T01:07:25.018Z,81.40
2018-05-14T01:09:52.526Z,81.30
2018-05-14T01:12:20.436Z,81.50
2018-05-14T01:14:47.928Z,81.50
2018-05-14T01:17:15.436Z,81.40
2018-05-14T01:19:43.027Z,81.40
2018-05-14T01:22:10.577Z,81.40
2018-05-14T01:24:38.478Z,81.40
2018-05-14T01:27:05.980Z,81.40
2018-05-14T01:29:33.503Z,81.70
2018-05-14T01:32:01.043Z,81.60
2018-05-14T01:34:28.591Z,81.40
2018-05-14T01:36:56.494Z,81.30
2018-05-14T01:39:23.983Z,81.30
2018-05-14T01:41:51.489Z,81.40
2018-05-14T01:44:19.452Z,81.50
2018-05-14T01:46:47.330Z,81.70
2018-05-14T01:49:15.251Z,81.60
2018-05-14T01:51:42.758Z,81.60
2018-05-14T01:54:10.236Z,81.70
2018-05-14T01:56:38.136Z,81.40
2018-05-14T01:59:05.651Z,81.40
2018-05-14T02:01:33.132Z,81.40
2018-05-14T02:04:01.065Z,81.10
2018-05-14T02:06:28.554Z,81.10
2018-05-14T02:08:58.034Z,81.20
2018-05-14T02:11:25.513Z,81.10
2018-05-14T02:13:53.006Z,81.40
2018-05-14T02:16:20.876Z,81.50
2018-05-14T02:18:48.854Z,81.50
2018-05-14T02:21:16.822Z,81.60
2018-05-14T02:23:44.762Z,81.50
2018-05-14T02:26:12.281Z,81.50
2018-05-14T02:28:39.828Z,81.30
2018-05-14T02:31:07.516Z,81.40
2018-05-14T02:33:35.060Z,81.60
2018-05-14T02:36:03.012Z,81.60
2018-05-14T02:38:31.264Z,81.60
2018-05-14T02:40:59.118Z,81.70
2018-05-14T02:43:26.650Z,81.60
2018-05-14T02:45:54.539Z,81.80
2018-05-14T02:48:22.072Z,81.80
2018-05-14T02:50:49.979Z,81.80
2018-05-14T02:53:17.596Z,81.80
2018-05-14T02:55:45.093Z,81.80
2018-05-14T02:58:13.752Z,81.80
2018-05-14T03:00:41.648Z,81.70
2018-05-14T03:03:09.228Z,81.70
2018-05-14T03:05:36.723Z,81.70
2018-05-14T03:08:04.316Z,81.60
2018-05-14T03:10:31.846Z,81.50
2018-05-14T03:12:59.390Z,81.40
2018-05-14T03:15:26.898Z,81.40
2018-05-14T03:17:54.492Z,81.50
2018-05-14T03:20:22.390Z,81.30
2018-05-14T03:22:49.924Z,81.30
2018-05-14T03:25:17.912Z,81.50
2018-05-14T03:27:45.422Z,81.50
2018-05-14T03:30:12.987Z,81.40
2018-05-14T03:32:40.502Z,81.50
2018-05-14T03:35:08.040Z,81.70
2018-05-14T03:37:35.636Z,81.60
2018-05-14T03:40:03.329Z,81.50
2018-05-14T03:42:30.873Z,81.30
2018-05-14T03:44:58.397Z,81.30
2018-05-14T03:47:26.387Z,81.30
2018-05-14T03:49:53.885Z,81.30
2018-05-14T03:52:21.386Z,81.40
2018-05-14T03:54:48.936Z,81.40
2018-05-14T03:57:16.415Z,81.30
2018-05-14T03:59:56.042Z,81.30
2018-05-14T04:02:35.389Z,81.10
2018-05-14T04:18:34.539Z,81.50
2018-05-14T04:21:02.017Z,81.50
2018-05-14T04:23:29.487Z,81.50
2018-05-14T04:25:56.957Z,81.30
2018-05-14T04:28:24.897Z,81.30
2018-05-14T04:30:52.428Z,81.30
2018-05-14T04:33:19.934Z,81.20
2018-05-14T04:35:47.488Z,81.30
2018-05-14T04:38:15.059Z,81.50
2018-05-14T04:40:42.548Z,81.70
2018-05-14T04:43:10.473Z,81.70
2018-05-14T04:45:37.942Z,81.70
2018-05-14T04:48:05.415Z,81.70
2018-05-14T04:50:32.897Z,81.80
2018-05-14T04:53:00.771Z,81.90
2018-05-14T04:55:28.243Z,81.90
2018-05-14T04:57:56.731Z,81.80
2018-05-14T05:00:24.679Z,81.60
2018-05-14T05:02:52.149Z,81.60
2018-05-14T05:05:19.618Z,81.70
2018-05-14T05:07:47.536Z,81.90
2018-05-14T05:10:15.023Z,81.90
2018-05-14T05:12:42.483Z,82.00
2018-05-14T05:15:10.057Z,82.00
2018-05-14T05:17:37.625Z,82.00
2018-05-14T05:20:05.151Z,82.00
2018-05-14T05:22:32.625Z,82.00
2018-05-14T05:25:00.097Z,82.10
2018-05-14T05:27:27.566Z,82.10
2018-05-14T05:29:55.024Z,82.00
2018-05-14T05:32:22.544Z,82.00
2018-05-14T05:34:50.500Z,81.90
2018-05-14T05:37:18.447Z,81.80
2018-05-14T05:39:45.912Z,81.80
2018-05-14T05:42:13.373Z,81.70
2018-05-14T05:44:40.871Z,81.80
2018-05-14T05:47:08.807Z,81.70
2018-05-14T05:49:36.276Z,81.70
2018-05-14T05:52:03.749Z,81.70
2018-05-14T05:54:31.333Z,81.90
2018-05-14T05:56:58.848Z,81.80
2018-05-14T05:59:26.425Z,81.80
2018-05-14T06:01:53.886Z,81.70
2018-05-14T06:04:21.456Z,81.60
2018-05-14T06:06:48.904Z,81.70
2018-05-14T06:09:16.433Z,81.70
2018-05-14T06:11:43.934Z,81.40
2018-05-14T06:14:11.393Z,81.30
2018-05-14T06:16:38.865Z,81.10
2018-05-14T06:19:06.350Z,81.20
2018-05-14T06:21:34.313Z,81.30
2018-05-14T06:24:01.771Z,81.30
2018-05-14T06:26:30.100Z,81.20
2018-05-14T06:28:57.563Z,81.30
2018-05-14T06:31:25.021Z,81.20
2018-05-14T06:33:52.508Z,81.00
2018-05-14T06:36:19.972Z,80.70
2018-05-14T06:38:47.455Z,80.70
2018-05-14T06:41:15.028Z,80.80
2018-05-14T06:43:42.580Z,80.90
2018-05-14T06:46:10.116Z,81.00
2018-05-14T06:48:37.586Z,80.80
2018-05-14T06:51:05.066Z,80.80
2018-05-14T06:53:32.525Z,80.70
2018-05-14T06:56:00.114Z,80.70
2018-05-14T06:58:27.979Z,80.80
2018-05-14T07:00:55.446Z,80.80
2018-05-14T07:03:23.365Z,80.10
2018-05-14T07:05:50.882Z,80.10
2018-05-14T07:08:18.752Z,81.00
2018-05-14T07:10:46.324Z,81.00
2018-05-14T07:13:14.179Z,80.30
2018-05-14T07:15:42.529Z,80.30
2018-05-14T07:18:09.981Z,80.20
2018-05-14T07:20:37.444Z,79.80
2018-05-14T07:23:04.957Z,80.10
2018-05-14T07:25:32.529Z,80.10
2018-05-14T07:28:00.389Z,79.20
2018-05-14T07:30:27.940Z,79.20
2018-05-14T07:32:55.412Z,78.80
2018-05-14T07:35:23.622Z,78.90
2018-05-14T07:37:51.114Z,79.00
2018-05-14T07:40:18.595Z,78.20
2018-05-14T07:42:46.060Z,78.30
2018-05-14T07:45:13.620Z,78.00
2018-05-14T07:47:44.066Z,78.40
2018-05-14T07:50:11.569Z,78.50
2018-05-14T07:52:39.047Z,78.70
2018-05-14T07:55:06.539Z,78.80
2018-05-14T07:57:34.081Z,78.90
2018-05-14T08:00:01.624Z,78.40
2018-05-14T08:02:29.204Z,78.80
2018-05-14T08:04:57.046Z,78.90
2018-05-14T08:07:24.476Z,79.20
2018-05-14T08:09:53.190Z,78.80
2018-05-14T08:12:21.019Z,78.10
2018-05-14T08:14:48.540Z,78.20
2018-05-14T08:17:16.066Z,78.20
2018-05-14T08:19:43.668Z,77.60
2018-05-14T08:22:11.198Z,77.40
2018-05-14T08:24:38.722Z,76.30
2018-05-14T08:27:06.209Z,76.60
2018-05-14T08:29:33.751Z,76.80
2018-05-14T08:32:01.230Z,75.70
2018-05-14T08:34:28.717Z,76.40
2018-05-14T08:36:56.297Z,76.20
2018-05-14T08:39:23.813Z,75.90
2018-05-14T08:41:51.321Z,75.70
2018-05-14T08:44:18.908Z,75.70
2018-05-14T08:46:46.651Z,76.00
2018-05-14T08:49:14.003Z,76.30
2018-05-14T08:51:41.506Z,76.80
2018-05-14T08:54:09.062Z,77.00
2018-05-14T08:56:36.482Z,76.90
2018-05-14T08:59:03.996Z,76.30
2018-05-14T09:01:31.662Z,76.40
2018-05-14T09:03:59.155Z,76.10
2018-05-14T09:06:26.635Z,75.80
2018-05-14T09:08:54.257Z,76.20
2018-05-14T09:11:21.638Z,76.10
2018-05-14T09:13:49.268Z,76.30
2018-05-14T09:16:17.173Z,76.80
2018-05-14T09:18:44.671Z,76.80
2018-05-14T09:21:12.145Z,76.30
2018-05-14T09:23:39.642Z,75.80
2018-05-14T09:26:07.137Z,76.00
2018-05-14T09:28:34.632Z,76.70
2018-05-14T09:31:02.130Z,76.00
2018-05-14T09:33:29.614Z,76.70
2018-05-14T09:35:57.101Z,76.80
2018-05-14T09:38:24.659Z,77.70
2018-05-14T09:40:52.151Z,78.40
2018-05-14T09:43:19.724Z,78.50
2018-05-14T09:45:47.597Z,78.70
2018-05-14T09:48:15.550Z,79.10
2018-05-14T09:50:43.152Z,79.10
2018-05-14T09:53:10.709Z,78.50
2018-05-14T09:55:38.247Z,78.90
2018-05-14T09:58:05.709Z,79.40
2018-05-14T10:00:33.284Z,79.40
2018-05-14T10:03:01.272Z,80.00
2018-05-14T10:05:28.822Z,80.00
2018-05-14T10:07:56.312Z,80.00
2018-05-14T10:10:23.908Z,80.30
2018-05-14T10:12:51.381Z,80.10
2018-05-14T10:15:18.927Z,80.20
2018-05-14T10:17:46.436Z,80.20
2018-05-14T10:20:14.310Z,80.60
2018-05-14T10:22:43.401Z,80.70
2018-05-14T10:25:10.900Z,80.70
2018-05-14T10:27:38.419Z,80.20
2018-05-14T10:30:05.955Z,80.00
2018-05-14T10:32:33.436Z,80.30
2018-05-14T10:35:00.932Z,80.50
2018-05-14T10:37:28.818Z,80.80
2018-05-14T10:39:56.756Z,81.10
2018-05-14T10:42:24.353Z,81.00
2018-05-14T10:44:51.890Z,81.10
2018-05-14T10:47:19.442Z,81.30
2018-05-14T10:49:47.159Z,81.20
2018-05-14T10:52:14.725Z,81.10
2018-05-14T10:54:42.238Z,81.20
2018-05-14T10:57:09.720Z,81.10
2018-05-14T10:59:37.300Z,81.00
2018-05-14T11:02:05.243Z,80.90
2018-05-14T11:04:32.716Z,80.90
2018-05-14T11:07:00.262Z,80.60
2018-05-14T11:09:27.743Z,80.70
2018-05-14T11:11:55.304Z,80.70
2018-05-14T11:14:22.871Z,81.00
2018-05-14T11:16:50.429Z,80.80
2018-05-14T11:19:17.936Z,80.60
2018-05-14T11:21:45.923Z,80.60
2018-05-14T11:24:13.795Z,80.40
2018-05-14T11:26:42.063Z,79.50
2018-05-14T11:29:09.826Z,79.50
2018-05-14T11:31:37.394Z,78.60
2018-05-14T11:34:04.973Z,80.00
2018-05-14T11:36:32.530Z,79.10
2018-05-14T11:39:00.180Z,78.20
2018-05-14T11:41:28.420Z,77.80
2018-05-14T11:43:56.347Z,79.00
2018-05-14T11:46:24.450Z,79.00
2018-05-14T11:48:52.040Z,78.50
2018-05-14T11:51:19.648Z,78.40
2018-05-14T11:53:47.320Z,78.30
2018-05-14T11:56:14.881Z,78.90
2018-05-14T11:58:42.417Z,79.80
2018-05-14T12:01:11.559Z,79.00
2018-05-14T12:03:39.184Z,79.00
2018-05-14T12:06:07.229Z,80.40
2018-05-14T12:08:34.949Z,80.40
2018-05-14T12:11:02.505Z,80.00
2018-05-14T12:13:31.094Z,79.70
2018-05-14T12:15:59.273Z,79.70
2018-05-14T12:18:27.574Z,79.00
2018-05-14T12:20:55.088Z,78.70
2018-05-14T12:23:22.594Z,78.80
2018-05-14T12:25:50.138Z,78.80
2018-05-14T12:28:17.648Z,77.90
2018-05-14T12:30:45.223Z,78.00
2018-05-14T12:33:12.740Z,77.50
2018-05-14T12:35:40.311Z,77.40
2018-05-14T12:38:07.882Z,77.90
2018-05-14T12:40:35.478Z,77.60
2018-05-14T12:43:03.033Z,77.50
2018-05-14T12:45:30.545Z,77.90
2018-05-14T12:47:58.470Z,77.70
2018-05-14T12:50:26.001Z,77.70
2018-05-14T12:52:53.561Z,76.10
2018-05-14T12:55:21.167Z,77.30
2018-05-14T12:57:48.775Z,77.60
2018-05-14T13:00:17.377Z,77.10
2018-05-14T13:02:44.925Z,77.10
2018-05-14T13:05:12.839Z,76.10
2018-05-14T13:07:40.858Z,76.10
2018-05-14T13:10:08.357Z,76.30
2018-05-14T13:12:35.935Z,75.40
2018-05-14T13:15:03.508Z,75.00
2018-05-14T13:17:31.068Z,73.80
2018-05-14T13:19:58.726Z,75.10
2018-05-14T13:22:26.989Z,74.50
2018-05-14T13:24:54.917Z,74.70
2018-05-14T13:27:22.539Z,74.40
2018-05-14T13:29:50.315Z,73.50
2018-05-14T13:32:17.964Z,72.70
2018-05-14T13:34:45.541Z,72.90
2018-05-14T13:37:13.127Z,72.00
2018-05-14T13:39:40.676Z,71.80
2018-05-14T13:42:08.244Z,70.30
2018-05-14T13:44:35.966Z,71.00
2018-05-14T13:47:03.483Z,71.70
2018-05-14T13:49:31.020Z,71.80
2018-05-14T13:51:59.503Z,71.10
2018-05-14T13:54:26.993Z,71.50
2018-05-14T13:56:54.964Z,70.90
2018-05-14T13:59:22.520Z,71.20
2018-05-14T14:01:50.103Z,70.20
2018-05-14T14:04:17.657Z,67.90
2018-05-14T14:06:45.286Z,68.50
2018-05-14T14:09:13.381Z,69.30
2018-05-14T14:11:41.260Z,69.30
2018-05-14T14:14:09.015Z,68.80
2018-05-14T14:16:37.046Z,69.40
2018-05-14T14:19:04.673Z,69.40
2018-05-14T14:21:32.757Z,68.10
2018-05-14T14:24:00.525Z,67.60
2018-05-14T14:26:28.751Z,68.80
2018-05-14T14:28:56.333Z,68.90
2018-05-14T14:31:24.202Z,71.30
2018-05-14T14:33:52.141Z,71.70
2018-05-14T14:36:19.733Z,71.70
2018-05-14T14:38:47.161Z,72.80
2018-05-14T14:41:14.668Z,72.90
2018-05-14T14:43:42.573Z,74.50
2018-05-14T14:46:10.095Z,74.50
2018-05-14T14:48:37.627Z,75.60
2018-05-14T14:51:05.114Z,76.20
2018-05-14T14:53:32.724Z,76.80
2018-05-14T14:56:00.194Z,77.10
2018-05-14T14:58:27.758Z,77.60
2018-05-14T15:00:55.652Z,78.40
2018-05-14T15:03:23.280Z,78.40
2018-05-14T15:05:50.929Z,79.20
2018-05-14T15:08:19.460Z,79.30
2018-05-14T15:10:47.105Z,79.40
2018-05-14T15:13:14.784Z,79.80
2018-05-14T15:15:42.541Z,80.30
2018-05-14T15:18:10.191Z,80.40
2018-05-14T15:20:38.758Z,73.10
2018-05-14T15:23:07.065Z,74.30
2018-05-14T15:25:35.438Z,75.70
2018-05-14T15:28:04.213Z,77.80
2018-05-14T15:30:33.007Z,77.80
2018-05-14T15:33:01.680Z,78.10
2018-05-14T15:35:33.472Z,78.30
2018-05-14T15:38:02.328Z,80.10
2018-05-14T15:40:31.315Z,80.50
2018-05-14T15:42:59.667Z,80.50
2018-05-14T15:45:28.045Z,81.00
2018-05-14T15:47:56.666Z,81.10
2018-05-14T15:50:25.374Z,81.80
2018-05-14T15:52:53.829Z,82.10
2018-05-14T15:55:22.125Z,81.90
2018-05-14T15:57:51.141Z,81.50
2018-05-14T16:00:19.899Z,80.90
2018-05-14T16:02:48.330Z,80.70
2018-05-14T16:05:16.756Z,80.90
2018-05-14T16:07:45.031Z,80.90
2018-05-14T16:10:13.496Z,80.90
2018-05-14T16:12:43.374Z,81.20
2018-05-14T16:15:11.834Z,81.20
2018-05-14T16:17:40.352Z,81.30
2018-05-14T16:20:09.641Z,81.30
2018-05-14T16:22:39.094Z,81.00
2018-05-14T16:25:07.544Z,81.00
2018-05-14T16:27:36.652Z,80.10
2018-05-14T16:30:05.209Z,80.30
2018-05-14T16:32:33.876Z,80.70
2018-05-14T16:35:03.192Z,81.10
2018-05-14T16:37:33.757Z,81.10
2018-05-14T16:40:02.544Z,81.30
2018-05-14T16:42:31.430Z,81.40
2018-05-14T16:45:00.121Z,81.30
2018-05-14T16:47:28.350Z,81.30
2018-05-14T16:49:57.005Z,80.70
2018-05-14T16:52:26.620Z,80.80
2018-05-14T16:54:55.224Z,80.80
2018-05-14T16:57:23.908Z,80.70
2018-05-14T16:59:53.160Z,81.20
2018-05-14T17:02:22.125Z,81.20
2018-05-14T17:04:51.040Z,81.40
2018-05-14T17:07:19.688Z,81.40
2018-05-14T17:09:48.273Z,81.40
2018-05-14T17:12:17.055Z,80.70
2018-05-14T17:14:46.565Z,81.10
2018-05-14T17:17:15.180Z,81.20
2018-05-14T17:19:43.586Z,81.50
2018-05-14T17:22:11.626Z,81.10
2018-05-14T17:37:48.221Z,80.60
2018-05-14T17:40:16.582Z,80.50
2018-05-14T17:42:45.348Z,80.60
2018-05-14T17:45:14.095Z,80.40
2018-05-14T17:47:43.141Z,80.50
2018-05-14T17:50:11.371Z,80.70
2018-05-14T17:52:40.373Z,81.00
2018-05-14T17:55:08.981Z,81.40
2018-05-14T17:57:37.971Z,81.50
2018-05-14T18:00:07.271Z,81.70
2018-05-14T18:02:35.846Z,81.70
2018-05-14T18:05:04.559Z,81.70
2018-05-14T18:07:33.142Z,81.70
2018-05-14T18:10:01.927Z,81.70
2018-05-14T18:12:32.057Z,82.00
2018-05-14T18:15:00.906Z,81.90
2018-05-14T18:17:29.477Z,81.70
2018-05-14T18:20:03.226Z,81.70
2018-05-14T18:22:31.519Z,81.90
2018-05-14T18:25:06.322Z,82.00
2018-05-14T18:27:35.131Z,81.90
2018-05-14T18:30:09.241Z,82.00
2018-05-14T18:32:40.655Z,82.20
2018-05-14T18:35:14.718Z,82.20
2018-05-14T18:37:43.246Z,82.10
2018-05-14T18:40:11.706Z,82.30
2018-05-14T18:42:40.777Z,82.40
2018-05-14T18:45:09.166Z,82.40
2018-05-14T18:47:37.752Z,82.40
2018-05-14T18:50:06.127Z,82.50
2018-05-14T18:52:35.105Z,82.70
2018-05-14T18:55:03.708Z,82.60
2018-05-14T18:57:32.562Z,82.40
2018-05-14T19:00:01.683Z,82.40
2018-05-14T19:02:30.563Z,82.30
2018-05-14T19:04:59.379Z,82.10
2018-05-14T19:07:27.881Z,82.10
2018-05-14T19:09:56.675Z,82.10
2018-05-14T19:12:25.250Z,82.10
2018-05-14T19:14:59.390Z,81.90
2018-05-14T19:17:33.732Z,81.60
2018-05-14T19:20:02.313Z,81.30
2018-05-14T19:36:00.199Z,80.30
2018-05-14T19:38:28.743Z,80.20
2018-05-14T19:40:57.659Z,80.10
2018-05-14T19:43:26.571Z,80.40
2018-05-14T19:45:55.672Z,80.50
2018-05-14T19:48:23.909Z,80.70
2018-05-14T19:50:52.503Z,80.50
2018-05-14T19:53:21.473Z,80.00
2018-05-14T19:55:50.156Z,79.60
2018-05-14T19:58:18.808Z,79.00
2018-05-14T20:00:47.226Z,79.30
2018-05-14T20:03:16.177Z,79.50
2018-05-14T20:05:45.137Z,79.20
2018-05-14T20:08:13.245Z,79.20
2018-05-14T20:10:41.530Z,79.50
2018-05-14T20:13:10.638Z,79.80
2018-05-14T20:15:42.026Z,79.90
2018-05-14T20:18:10.571Z,79.90
2018-05-14T20:20:39.581Z,79.90
2018-05-14T20:23:07.647Z,79.90
2018-05-14T20:25:35.956Z,79.60
2018-05-14T20:28:05.277Z,79.00
2018-05-14T20:30:33.863Z,79.00
2018-05-14T20:33:02.383Z,78.90
2018-05-14T20:35:30.900Z,78.60
2018-05-14T20:37:59.208Z,78.70
2018-05-14T20:40:28.205Z,78.30
2018-05-14T20:42:56.924Z,78.30
2018-05-14T20:45:25.373Z,78.70
2018-05-14T20:47:53.913Z,78.20
2018-05-14T20:50:22.654Z,78.50
2018-05-14T20:52:50.430Z,78.40
2018-05-14T20:55:19.592Z,78.40
2018-05-14T20:57:48.067Z,78.60
2018-05-14T21:00:17.223Z,78.40
2018-05-14T21:02:45.822Z,78.30
2018-05-14T21:05:14.732Z,77.80
2018-05-14T21:07:43.619Z,77.80
2018-05-14T21:10:12.380Z,77.80
2018-05-14T21:12:40.920Z,77.80
2018-05-14T21:15:09.385Z,77.50
2018-05-14T21:17:37.749Z,77.50
2018-05-14T21:20:06.212Z,77.30
2018-05-14T21:22:36.046Z,77.70
2018-05-14T21:25:04.830Z,77.90
2018-05-14T21:27:33.410Z,77.60
2018-05-14T21:30:01.966Z,77.70
2018-05-14T21:32:30.276Z,72.50
2018-05-14T21:34:59.300Z,75.50
2018-05-14T21:37:27.613Z,76.50
2018-05-14T21:39:55.816Z,75.90
2018-05-14T21:42:24.022Z,76.90
2018-05-14T21:44:52.323Z,76.80
2018-05-14T21:47:20.992Z,76.10
2018-05-14T21:49:49.804Z,76.40
2018-05-14T21:52:19.190Z,76.50
2018-05-14T21:54:47.827Z,76.50
2018-05-14T21:57:15.935Z,74.10
2018-05-14T21:59:44.915Z,71.50
2018-05-14T22:02:13.113Z,71.50
2018-05-14T22:04:41.677Z,72.20
2018-05-14T22:07:10.247Z,72.20
2018-05-14T22:09:39.087Z,69.90
2018-05-14T22:12:08.363Z,70.90
2018-05-14T22:14:36.787Z,72.00
2018-05-14T22:17:06.388Z,68.30
2018-05-14T22:19:34.862Z,69.90
2018-05-14T22:22:03.280Z,70.00
2018-05-14T22:24:31.211Z,69.00
2018-05-14T22:26:59.454Z,70.90
2018-05-14T22:29:27.425Z,72.30
2018-05-14T22:31:55.983Z,71.80
2018-05-14T22:34:24.568Z,71.40
2018-05-14T22:36:52.375Z,72.50
2018-05-14T22:39:20.606Z,69.40
2018-05-14T22:41:49.210Z,70.40
2018-05-14T22:44:18.025Z,71.90
2018-05-14T22:46:47.335Z,72.70
2018-05-14T22:49:15.474Z,73.20
2018-05-14T22:51:44.245Z,73.10
2018-05-14T22:54:12.772Z,69.80
2018-05-14T22:56:41.562Z,71.40
2018-05-14T22:59:10.000Z,71.00
2018-05-14T23:01:38.034Z,72.60
2018-05-14T23:04:06.292Z,72.60
2018-05-14T23:06:34.895Z,72.90
2018-05-14T23:09:03.466Z,72.40
2018-05-14T23:11:32.035Z,70.80
2018-05-14T23:14:00.797Z,71.80
2018-05-14T23:16:29.512Z,70.60
2018-05-14T23:18:58.106Z,71.60
2018-05-14T23:21:27.078Z,70.30
2018-05-14T23:23:55.103Z,66.40
2018-05-14T23:26:23.422Z,65.90
2018-05-14T23:28:52.171Z,67.50
2018-05-14T23:31:21.144Z,64.50
2018-05-14T23:33:50.300Z,65.10
2018-05-14T23:36:18.694Z,65.20
2018-05-14T23:38:47.165Z,67.00
2018-05-14T23:41:15.848Z,68.30
2018-05-14T23:43:44.833Z,69.60
2018-05-14T23:46:13.764Z,70.40
2018-05-14T23:48:42.309Z,70.70
2018-05-14T23:51:10.549Z,70.60
2018-05-14T23:53:39.093Z,69.60
2018-05-14T23:56:07.602Z,69.60
2018-05-14T23:58:36.497Z,68.20
